sensor_id;sensor_type;location;lat;lon;timestamp;pressure;altitude;pressure_sealevel;temperature;humidity
33554;BME280;19885;42.208;24.952;2024-03-25T00:00:48;98252.66;;;12.37;100.00
33554;BME280;19885;42.208;24.952;2024-03-25T00:03:13;98232.03;;;12.27;100.00
33554;BME280;19885;42.208;24.952;2024-03-25T00:05:39;98237.72;;;12.10;100.00
33554;BME280;19885;42.208;24.952;2024-03-25T00:08:04;98231.91;;;12.33;100.00
33554;BME280;19885;42.208;24.952;2024-03-25T00:10:30;98223.00;;;12.40;100.00
33554;BME280;19885;42.208;24.952;2024-03-25T00:12:55;98213.31;;;12.43;100.00
33554;BME280;19885;42.208;24.952;2024-03-25T00:15:24;98202.97;;;12.39;100.00
33554;BME280;19885;42.208;24.952;2024-03-25T00:17:52;98201.66;;;12.24;100.00
33554;BME280;19885;42.208;24.952;2024-03-25T00:20:17;98200.44;;;12.37;99.94
33554;BME280;19885;42.208;24.952;2024-03-25T00:22:43;98199.13;;;12.52;98.92
33554;BME280;19885;42.208;24.952;2024-03-25T00:25:08;98182.22;;;12.65;98.65
33554;BME280;19885;42.208;24.952;2024-03-25T00:27:34;98179.69;;;12.62;98.23
33554;BME280;19885;42.208;24.952;2024-03-25T00:29:59;98185.09;;;12.56;97.93
33554;BME280;19885;42.208;24.952;2024-03-25T00:32:25;98182.31;;;12.62;97.75
33554;BME280;19885;42.208;24.952;2024-03-25T00:34:50;98181.16;;;12.70;96.89
33554;BME280;19885;42.208;24.952;2024-03-25T00:37:18;98179.22;;;12.78;96.59
33554;BME280;19885;42.208;24.952;2024-03-25T00:39:43;98183.72;;;12.73;97.05
33554;BME280;19885;42.208;24.952;2024-03-25T00:42:09;98178.13;;;12.85;95.57
33554;BME280;19885;42.208;24.952;2024-03-25T00:44:34;98163.94;;;12.93;94.89
33554;BME280;19885;42.208;24.952;2024-03-25T00:46:59;98167.28;;;12.98;94.25
33554;BME280;19885;42.208;24.952;2024-03-25T00:49:25;98143.66;;;13.01;95.01
33554;BME280;19885;42.208;24.952;2024-03-25T00:51:50;98149.97;;;12.94;94.28
33554;BME280;19885;42.208;24.952;2024-03-25T00:54:16;98158.59;;;12.68;94.66
33554;BME280;19885;42.208;24.952;2024-03-25T00:56:41;98158.47;;;12.72;95.47
33554;BME280;19885;42.208;24.952;2024-03-25T00:59:06;98169.25;;;12.62;95.27
33554;BME280;19885;42.208;24.952;2024-03-25T01:01:32;98175.53;;;12.55;95.00
33554;BME280;19885;42.208;24.952;2024-03-25T01:03:58;98179.63;;;12.65;94.62
33554;BME280;19885;42.208;24.952;2024-03-25T01:06:23;98189.88;;;12.71;92.94
33554;BME280;19885;42.208;24.952;2024-03-25T01:08:49;98190.81;;;12.68;92.47
33554;BME280;19885;42.208;24.952;2024-03-25T01:11:14;98207.09;;;12.47;93.13
33554;BME280;19885;42.208;24.952;2024-03-25T01:13:40;98207.38;;;12.06;96.97
33554;BME280;19885;42.208;24.952;2024-03-25T01:16:06;98199.28;;;11.81;100.00
33554;BME280;19885;42.208;24.952;2024-03-25T01:18:32;98192.88;;;11.94;100.00
33554;BME280;19885;42.208;24.952;2024-03-25T01:20:58;98193.59;;;11.99;100.00
33554;BME280;19885;42.208;24.952;2024-03-25T01:23:23;98195.84;;;12.13;99.89
33554;BME280;19885;42.208;24.952;2024-03-25T01:25:48;98198.31;;;12.19;100.00
33554;BME280;19885;42.208;24.952;2024-03-25T01:28:13;98211.03;;;12.31;100.00
33554;BME280;19885;42.208;24.952;2024-03-25T01:30:39;98228.25;;;12.38;100.00
33554;BME280;19885;42.208;24.952;2024-03-25T01:33:04;98291.50;;;11.82;100.00
33554;BME280;19885;42.208;24.952;2024-03-25T01:35:30;98329.25;;;10.83;100.00
33554;BME280;19885;42.208;24.952;2024-03-25T01:37:56;98328.97;;;10.52;100.00
33554;BME280;19885;42.208;24.952;2024-03-25T01:40:21;98323.28;;;10.31;100.00
33554;BME280;19885;42.208;24.952;2024-03-25T01:42:59;98330.19;;;10.33;100.00
33554;BME280;19885;42.208;24.952;2024-03-25T01:45:25;98335.31;;;10.38;100.00
33554;BME280;19885;42.208;24.952;2024-03-25T01:47:52;98340.28;;;10.50;100.00
33554;BME280;19885;42.208;24.952;2024-03-25T01:50:18;98335.06;;;10.50;100.00
33554;BME280;19885;42.208;24.952;2024-03-25T01:52:43;98349.66;;;10.60;100.00
33554;BME280;19885;42.208;24.952;2024-03-25T01:55:10;98341.47;;;10.81;100.00
33554;BME280;19885;42.208;24.952;2024-03-25T01:57:37;98341.47;;;10.81;100.00
33554;BME280;19885;42.208;24.952;2024-03-25T02:00:04;98338.00;;;10.79;100.00
33554;BME280;19885;42.208;24.952;2024-03-25T02:02:29;98340.69;;;10.76;100.00
33554;BME280;19885;42.208;24.952;2024-03-25T02:04:55;98346.94;;;10.66;100.00
33554;BME280;19885;42.208;24.952;2024-03-25T02:07:20;98367.38;;;10.87;100.00
33554;BME280;19885;42.208;24.952;2024-03-25T02:09:46;98370.38;;;10.66;100.00
33554;BME280;19885;42.208;24.952;2024-03-25T02:12:11;98392.88;;;10.20;100.00
33554;BME280;19885;42.208;24.952;2024-03-25T02:14:37;98379.94;;;10.14;100.00
33554;BME280;19885;42.208;24.952;2024-03-25T02:17:05;98400.81;;;10.12;100.00
33554;BME280;19885;42.208;24.952;2024-03-25T02:19:31;98400.28;;;9.87;100.00
33554;BME280;19885;42.208;24.952;2024-03-25T02:21:59;98409.44;;;9.50;100.00
33554;BME280;19885;42.208;24.952;2024-03-25T02:24:25;98403.00;;;9.13;100.00
33554;BME280;19885;42.208;24.952;2024-03-25T02:26:51;98405.06;;;8.81;100.00
33554;BME280;19885;42.208;24.952;2024-03-25T02:29:19;98400.91;;;8.63;100.00
33554;BME280;19885;42.208;24.952;2024-03-25T02:31:44;98394.94;;;8.53;100.00
33554;BME280;19885;42.208;24.952;2024-03-25T02:34:09;98391.41;;;8.59;100.00
33554;BME280;19885;42.208;24.952;2024-03-25T02:36:35;98400.13;;;8.53;100.00
33554;BME280;19885;42.208;24.952;2024-03-25T02:39:00;98390.56;;;8.60;100.00
33554;BME280;19885;42.208;24.952;2024-03-25T02:41:25;98386.31;;;8.50;100.00
33554;BME280;19885;42.208;24.952;2024-03-25T02:43:52;98391.69;;;8.30;100.00
33554;BME280;19885;42.208;24.952;2024-03-25T02:46:17;98401.25;;;8.19;100.00
33554;BME280;19885;42.208;24.952;2024-03-25T02:48:42;98397.72;;;8.32;100.00
33554;BME280;19885;42.208;24.952;2024-03-25T02:51:08;98404.66;;;8.30;100.00
33554;BME280;19885;42.208;24.952;2024-03-25T02:53:33;98409.91;;;8.17;100.00
33554;BME280;19885;42.208;24.952;2024-03-25T02:55:58;98421.25;;;8.05;100.00
33554;BME280;19885;42.208;24.952;2024-03-25T02:58:23;98418.75;;;7.87;100.00
33554;BME280;19885;42.208;24.952;2024-03-25T03:00:49;98407.53;;;7.88;100.00
33554;BME280;19885;42.208;24.952;2024-03-25T03:03:14;98409.28;;;7.80;100.00
33554;BME280;19885;42.208;24.952;2024-03-25T03:05:39;98404.06;;;7.89;100.00
33554;BME280;19885;42.208;24.952;2024-03-25T03:08:05;98409.28;;;7.80;100.00
33554;BME280;19885;42.208;24.952;2024-03-25T03:10:30;98418.88;;;7.72;100.00
33554;BME280;19885;42.208;24.952;2024-03-25T03:12:55;98430.09;;;7.68;100.00
33554;BME280;19885;42.208;24.952;2024-03-25T03:15:21;98434.38;;;7.75;100.00
33554;BME280;19885;42.208;24.952;2024-03-25T03:17:46;98423.94;;;7.87;100.00
33554;BME280;19885;42.208;24.952;2024-03-25T03:20:11;98426.53;;;7.87;100.00
33554;BME280;19885;42.208;24.952;2024-03-25T03:22:37;98423.91;;;7.91;100.00
33554;BME280;19885;42.208;24.952;2024-03-25T03:25:05;98425.66;;;7.86;100.00
33554;BME280;19885;42.208;24.952;2024-03-25T03:27:30;98426.50;;;7.93;100.00
33554;BME280;19885;42.208;24.952;2024-03-25T03:29:56;98428.28;;;7.88;100.00
33554;BME280;19885;42.208;24.952;2024-03-25T03:32:21;98419.59;;;7.89;100.00
33554;BME280;19885;42.208;24.952;2024-03-25T03:34:46;98416.19;;;7.84;100.00
33554;BME280;19885;42.208;24.952;2024-03-25T03:37:12;98416.16;;;7.87;100.00
33554;BME280;19885;42.208;24.952;2024-03-25T03:39:37;98407.53;;;7.85;100.00
33554;BME280;19885;42.208;24.952;2024-03-25T03:42:02;98412.66;;;7.97;100.00
33554;BME280;19885;42.208;24.952;2024-03-25T03:44:32;98405.72;;;7.96;100.00
33554;BME280;19885;42.208;24.952;2024-03-25T03:46:57;98417.88;;;7.91;100.00
33554;BME280;19885;42.208;24.952;2024-03-25T03:49:26;98426.53;;;7.87;100.00
33554;BME280;19885;42.208;24.952;2024-03-25T03:51:51;98433.41;;;7.94;100.00
33554;BME280;19885;42.208;24.952;2024-03-25T03:54:16;98440.34;;;7.92;100.00
33554;BME280;19885;42.208;24.952;2024-03-25T03:56:42;98435.19;;;7.86;100.00
33554;BME280;19885;42.208;24.952;2024-03-25T03:59:07;98441.25;;;7.85;100.00
33554;BME280;19885;42.208;24.952;2024-03-25T04:01:32;98452.50;;;7.85;100.00
33554;BME280;19885;42.208;24.952;2024-03-25T04:03:58;98456.84;;;7.79;100.00
33554;BME280;19885;42.208;24.952;2024-03-25T04:06:23;98444.72;;;7.79;100.00
33554;BME280;19885;42.208;24.952;2024-03-25T04:08:48;98450.78;;;7.83;100.00
33554;BME280;19885;42.208;24.952;2024-03-25T04:11:14;98450.72;;;7.92;100.00
33554;BME280;19885;42.208;24.952;2024-03-25T04:13:39;98461.84;;;8.08;100.00
33554;BME280;19885;42.208;24.952;2024-03-25T04:16:05;98460.06;;;8.16;100.00
33554;BME280;19885;42.208;24.952;2024-03-25T04:18:31;98464.41;;;8.15;100.00
33554;BME280;19885;42.208;24.952;2024-03-25T04:20:57;98474.06;;;7.92;100.00
33554;BME280;19885;42.208;24.952;2024-03-25T04:23:22;98467.06;;;8.03;100.00
33554;BME280;19885;42.208;24.952;2024-03-25T04:25:48;98471.34;;;8.09;100.00
33554;BME280;19885;42.208;24.952;2024-03-25T04:28:13;98468.75;;;8.10;100.00
33554;BME280;19885;42.208;24.952;2024-03-25T04:30:39;98475.75;;;7.93;100.00
33554;BME280;19885;42.208;24.952;2024-03-25T04:33:04;98471.41;;;7.98;100.00
33554;BME280;19885;42.208;24.952;2024-03-25T04:35:29;98471.44;;;7.95;100.00
33554;BME280;19885;42.208;24.952;2024-03-25T04:37:55;98479.13;;;8.12;100.00
33554;BME280;19885;42.208;24.952;2024-03-25T04:40:21;98480.00;;;8.12;100.00
33554;BME280;19885;42.208;24.952;2024-03-25T04:42:46;98483.44;;;8.11;100.00
33554;BME280;19885;42.208;24.952;2024-03-25T04:45:11;98479.97;;;8.15;100.00
33554;BME280;19885;42.208;24.952;2024-03-25T04:47:37;98487.75;;;8.14;100.00
33554;BME280;19885;42.208;24.952;2024-03-25T04:50:02;98486.94;;;8.04;100.00
33554;BME280;19885;42.208;24.952;2024-03-25T04:52:28;98492.94;;;8.14;100.00
33554;BME280;19885;42.208;24.952;2024-03-25T04:54:53;98491.22;;;8.17;100.00
33554;BME280;19885;42.208;24.952;2024-03-25T04:57:19;98486.84;;;8.24;100.00
33554;BME280;19885;42.208;24.952;2024-03-25T04:59:45;98494.63;;;8.31;100.00
33554;BME280;19885;42.208;24.952;2024-03-25T05:02:10;98485.94;;;8.32;100.00
33554;BME280;19885;42.208;24.952;2024-03-25T05:04:35;98472.06;;;8.36;100.00
33554;BME280;19885;42.208;24.952;2024-03-25T05:07:01;98480.78;;;8.20;100.00
33554;BME280;19885;42.208;24.952;2024-03-25T05:09:26;98490.28;;;8.27;100.00
33554;BME280;19885;42.208;24.952;2024-03-25T05:11:51;98494.59;;;8.33;100.00
33554;BME280;19885;42.208;24.952;2024-03-25T05:14:17;98504.88;;;8.49;100.00
33554;BME280;19885;42.208;24.952;2024-03-25T05:16:42;98510.09;;;8.45;100.00
33554;BME280;19885;42.208;24.952;2024-03-25T05:19:07;98512.72;;;8.40;100.00
33554;BME280;19885;42.208;24.952;2024-03-25T05:21:33;98517.84;;;8.49;100.00
33554;BME280;19885;42.208;24.952;2024-03-25T05:23:58;98521.34;;;8.41;100.00
33554;BME280;19885;42.208;24.952;2024-03-25T05:26:23;98516.03;;;8.57;100.00
33554;BME280;19885;42.208;24.952;2024-03-25T05:28:55;98522.97;;;8.55;100.00
33554;BME280;19885;42.208;24.952;2024-03-25T05:31:20;98531.63;;;8.54;100.00
33554;BME280;19885;42.208;24.952;2024-03-25T05:33:46;98530.78;;;8.52;100.00
33554;BME280;19885;42.208;24.952;2024-03-25T05:36:11;98539.38;;;8.65;100.00
33554;BME280;19885;42.208;24.952;2024-03-25T05:38:37;98542.88;;;8.58;100.00
33554;BME280;19885;42.208;24.952;2024-03-25T05:41:03;98549.72;;;8.68;100.00
33554;BME280;19885;42.208;24.952;2024-03-25T05:43:28;98554.06;;;8.68;100.00
33554;BME280;19885;42.208;24.952;2024-03-25T05:45:54;98562.69;;;8.70;100.00
33554;BME280;19885;42.208;24.952;2024-03-25T05:48:24;98562.66;;;8.74;100.00
33554;BME280;19885;42.208;24.952;2024-03-25T05:51:02;98552.22;;;8.80;100.00
33554;BME280;19885;42.208;24.952;2024-03-25T05:53:28;98563.41;;;8.88;100.00
33554;BME280;19885;42.208;24.952;2024-03-25T05:55:53;98570.44;;;8.79;100.00
33554;BME280;19885;42.208;24.952;2024-03-25T05:58:19;98578.22;;;8.79;100.00
33554;BME280;19885;42.208;24.952;2024-03-25T06:00:46;98591.19;;;8.80;100.00
33554;BME280;19885;42.208;24.952;2024-03-25T06:03:12;98597.13;;;8.93;100.00
33554;BME280;19885;42.208;24.952;2024-03-25T06:05:37;98595.34;;;9.04;100.00
33554;BME280;19885;42.208;24.952;2024-03-25T06:08:02;98605.66;;;9.13;100.00
33554;BME280;19885;42.208;24.952;2024-03-25T06:10:28;98615.09;;;9.20;100.00
33554;BME280;19885;42.208;24.952;2024-03-25T06:12:54;98628.22;;;9.05;100.00
33554;BME280;19885;42.208;24.952;2024-03-25T06:15:19;98619.56;;;9.04;100.00
33554;BME280;19885;42.208;24.952;2024-03-25T06:17:44;98628.16;;;9.14;100.00
33554;BME280;19885;42.208;24.952;2024-03-25T06:20:10;98627.16;;;9.30;100.00
33554;BME280;19885;42.208;24.952;2024-03-25T06:22:35;98635.91;;;9.20;100.00
33554;BME280;19885;42.208;24.952;2024-03-25T06:25:01;98637.69;;;9.13;100.00
33554;BME280;19885;42.208;24.952;2024-03-25T06:27:26;98628.16;;;9.14;100.00
33554;BME280;19885;42.208;24.952;2024-03-25T06:29:51;98636.94;;;9.01;100.00
33554;BME280;19885;42.208;24.952;2024-03-25T06:32:36;98638.75;;;8.90;100.00
33554;BME280;19885;42.208;24.952;2024-03-25T06:35:20;98643.00;;;8.98;100.00
33554;BME280;19885;42.208;24.952;2024-03-25T06:37:46;98643.81;;;9.02;100.00
33554;BME280;19885;42.208;24.952;2024-03-25T06:40:11;98654.25;;;9.00;100.00
33554;BME280;19885;42.208;24.952;2024-03-25T06:42:37;98656.88;;;8.99;100.00
33554;BME280;19885;42.208;24.952;2024-03-25T06:45:02;98658.66;;;8.88;100.00
33554;BME280;19885;42.208;24.952;2024-03-25T06:47:28;98662.97;;;8.89;100.00
33554;BME280;19885;42.208;24.952;2024-03-25T06:49:53;98675.97;;;8.87;100.00
33554;BME280;19885;42.208;24.952;2024-03-25T06:52:18;98682.06;;;8.83;100.00
33554;BME280;19885;42.208;24.952;2024-03-25T06:54:44;98683.81;;;8.83;100.00
33554;BME280;19885;42.208;24.952;2024-03-25T06:57:09;98685.50;;;8.84;100.00
33554;BME280;19885;42.208;24.952;2024-03-25T06:59:35;98686.34;;;8.92;100.00
33554;BME280;19885;42.208;24.952;2024-03-25T07:02:02;98687.25;;;8.85;100.00
33554;BME280;19885;42.208;24.952;2024-03-25T07:04:27;98681.19;;;8.83;100.00
33554;BME280;19885;42.208;24.952;2024-03-25T07:06:53;98689.81;;;8.91;100.00
33554;BME280;19885;42.208;24.952;2024-03-25T07:09:18;98696.75;;;8.84;100.00
33554;BME280;19885;42.208;24.952;2024-03-25T07:11:45;98692.53;;;8.70;100.00
33554;BME280;19885;42.208;24.952;2024-03-25T07:14:12;98702.84;;;8.83;100.00
33554;BME280;19885;42.208;24.952;2024-03-25T07:16:37;98706.97;;;9.16;100.00
33554;BME280;19885;42.208;24.952;2024-03-25T07:19:02;98709.28;;;9.55;100.00
33554;BME280;19885;42.208;24.952;2024-03-25T07:21:28;98715.25;;;9.66;100.00
33554;BME280;19885;42.208;24.952;2024-03-25T07:23:53;98716.53;;;10.19;100.00
33554;BME280;19885;42.208;24.952;2024-03-25T07:26:18;98714.75;;;10.22;100.00
33554;BME280;19885;42.208;24.952;2024-03-25T07:28:43;98712.28;;;10.05;100.00
33554;BME280;19885;42.208;24.952;2024-03-25T07:31:09;98719.19;;;10.10;100.00
33554;BME280;19885;42.208;24.952;2024-03-25T07:33:34;98716.84;;;9.82;100.00
33554;BME280;19885;42.208;24.952;2024-03-25T07:35:59;98717.94;;;9.54;100.00
33554;BME280;19885;42.208;24.952;2024-03-25T07:38:25;98705.81;;;9.56;100.00
33554;BME280;19885;42.208;24.952;2024-03-25T07:40:50;98710.19;;;9.50;100.00
33554;BME280;19885;42.208;24.952;2024-03-25T07:43:15;98716.06;;;9.74;100.00
33554;BME280;19885;42.208;24.952;2024-03-25T07:45:41;98716.72;;;9.96;100.00
33554;BME280;19885;42.208;24.952;2024-03-25T07:48:07;98717.19;;;10.40;100.00
33554;BME280;19885;42.208;24.952;2024-03-25T07:50:33;98715.84;;;10.74;100.00
33554;BME280;19885;42.208;24.952;2024-03-25T07:52:58;98722.78;;;10.77;100.00
33554;BME280;19885;42.208;24.952;2024-03-25T07:55:23;98705.50;;;10.71;100.00
33554;BME280;19885;42.208;24.952;2024-03-25T07:57:49;98709.16;;;10.58;100.00
33554;BME280;19885;42.208;24.952;2024-03-25T08:00:14;98703.50;;;10.92;100.00
33554;BME280;19885;42.208;24.952;2024-03-25T08:02:43;98704.28;;;10.97;100.00
33554;BME280;19885;42.208;24.952;2024-03-25T08:05:08;98714.59;;;11.04;100.00
33554;BME280;19885;42.208;24.952;2024-03-25T08:07:34;98715.91;;;11.34;98.30
33554;BME280;19885;42.208;24.952;2024-03-25T08:09:59;98716.38;;;11.59;100.00
33554;BME280;19885;42.208;24.952;2024-03-25T08:12:24;98705.19;;;12.04;100.00
33554;BME280;19885;42.208;24.952;2024-03-25T08:14:49;98708.72;;;12.47;96.37
33554;BME280;19885;42.208;24.952;2024-03-25T08:17:15;98706.25;;;12.41;91.45
33554;BME280;19885;42.208;24.952;2024-03-25T08:19:40;98698.63;;;12.29;88.14
33554;BME280;19885;42.208;24.952;2024-03-25T08:22:07;98718.72;;;12.26;89.91
33554;BME280;19885;42.208;24.952;2024-03-25T08:24:32;98703.22;;;12.16;89.03
33554;BME280;19885;42.208;24.952;2024-03-25T08:26:57;98692.97;;;12.07;85.15
33554;BME280;19885;42.208;24.952;2024-03-25T08:29:23;98695.47;;;12.12;85.15
33554;BME280;19885;42.208;24.952;2024-03-25T08:31:48;98700.09;;;11.98;84.70
33554;BME280;19885;42.208;24.952;2024-03-25T08:34:13;98698.78;;;11.73;91.12
33554;BME280;19885;42.208;24.952;2024-03-25T08:36:39;98704.09;;;11.67;87.70
33554;BME280;19885;42.208;24.952;2024-03-25T08:39:05;98703.06;;;11.77;88.69
33554;BME280;19885;42.208;24.952;2024-03-25T08:41:30;98705.22;;;12.02;88.41
33554;BME280;19885;42.208;24.952;2024-03-25T08:43:55;98687.72;;;12.07;87.06
33554;BME280;19885;42.208;24.952;2024-03-25T08:46:20;98706.38;;;12.34;86.26
33554;BME280;19885;42.208;24.952;2024-03-25T08:48:46;98699.94;;;12.51;84.98
33554;BME280;19885;42.208;24.952;2024-03-25T08:51:11;98705.09;;;12.54;81.46
33554;BME280;19885;42.208;24.952;2024-03-25T08:53:36;98714.38;;;12.69;82.60
33554;BME280;19885;42.208;24.952;2024-03-25T08:56:02;98713.13;;;12.86;78.29
33554;BME280;19885;42.208;24.952;2024-03-25T08:58:28;98713.28;;;12.79;80.36
33554;BME280;19885;42.208;24.952;2024-03-25T09:00:53;98714.94;;;12.84;81.81
33554;BME280;19885;42.208;24.952;2024-03-25T09:03:18;98715.81;;;12.85;78.36
33554;BME280;19885;42.208;24.952;2024-03-25T09:05:43;98722.72;;;12.86;77.93
33554;BME280;19885;42.208;24.952;2024-03-25T09:08:09;98730.81;;;12.75;76.97
33554;BME280;19885;42.208;24.952;2024-03-25T09:10:37;98713.91;;;12.92;79.01
33554;BME280;19885;42.208;24.952;2024-03-25T09:13:21;98719.47;;;13.18;75.76
33554;BME280;19885;42.208;24.952;2024-03-25T09:15:48;98733.03;;;13.35;78.47
33554;BME280;19885;42.208;24.952;2024-03-25T09:18:13;98732.63;;;13.13;74.81
33554;BME280;19885;42.208;24.952;2024-03-25T09:20:39;98714.94;;;13.26;75.91
33554;BME280;19885;42.208;24.952;2024-03-25T09:23:04;98741.66;;;13.40;75.94
33554;BME280;19885;42.208;24.952;2024-03-25T09:25:29;98724.69;;;13.19;73.83
33554;BME280;19885;42.208;24.952;2024-03-25T09:27:55;98734.00;;;13.31;72.14
33554;BME280;19885;42.208;24.952;2024-03-25T09:30:23;98731.84;;;13.48;72.54
33554;BME280;19885;42.208;24.952;2024-03-25T09:32:49;98722.47;;;13.38;71.52
33554;BME280;19885;42.208;24.952;2024-03-25T09:35:14;98727.59;;;13.44;71.50
33554;BME280;19885;42.208;24.952;2024-03-25T09:37:39;98729.72;;;13.64;68.41
33554;BME280;19885;42.208;24.952;2024-03-25T09:40:05;98741.28;;;13.55;71.54
33554;BME280;19885;42.208;24.952;2024-03-25T09:42:34;98730.53;;;13.67;70.65
33554;BME280;19885;42.208;24.952;2024-03-25T09:45:01;98737.63;;;13.62;68.64
33554;BME280;19885;42.208;24.952;2024-03-25T09:47:26;98736.81;;;13.60;68.80
33554;BME280;19885;42.208;24.952;2024-03-25T09:49:53;98725.41;;;13.63;65.83
33554;BME280;19885;42.208;24.952;2024-03-25T09:52:19;98724.84;;;13.85;70.61
33554;BME280;19885;42.208;24.952;2024-03-25T09:54:45;98729.75;;;13.97;64.13
33554;BME280;19885;42.208;24.952;2024-03-25T09:57:10;98724.84;;;14.19;68.69
33554;BME280;19885;42.208;24.952;2024-03-25T09:59:36;98745.41;;;14.34;65.81
33554;BME280;19885;42.208;24.952;2024-03-25T10:02:02;98739.94;;;14.09;57.17
33554;BME280;19885;42.208;24.952;2024-03-25T10:04:29;98745.94;;;14.13;54.98
33554;BME280;19885;42.208;24.952;2024-03-25T10:06:54;98745.97;;;14.47;52.47
33554;BME280;19885;42.208;24.952;2024-03-25T10:09:20;98740.56;;;14.19;52.87
33554;BME280;19885;42.208;24.952;2024-03-25T10:11:49;98738.81;;;14.19;53.01
33554;BME280;19885;42.208;24.952;2024-03-25T10:14:17;98736.78;;;14.29;55.88
33554;BME280;19885;42.208;24.952;2024-03-25T10:16:44;98738.81;;;14.19;51.30
33554;BME280;19885;42.208;24.952;2024-03-25T10:19:09;98748.00;;;14.36;52.18
33554;BME280;19885;42.208;24.952;2024-03-25T10:21:35;98742.69;;;14.39;49.22
33554;BME280;19885;42.208;24.952;2024-03-25T10:24:00;98744.94;;;14.52;49.56
33554;BME280;19885;42.208;24.952;2024-03-25T10:26:29;98753.97;;;14.42;50.86
33554;BME280;19885;42.208;24.952;2024-03-25T10:29:00;98753.34;;;14.33;49.48
33554;BME280;19885;42.208;24.952;2024-03-25T10:31:25;98748.50;;;14.50;50.15
33554;BME280;19885;42.208;24.952;2024-03-25T10:33:51;98749.41;;;14.49;51.04
33554;BME280;19885;42.208;24.952;2024-03-25T10:36:16;98759.53;;;14.61;50.09
33554;BME280;19885;42.208;24.952;2024-03-25T10:38:42;98743.81;;;14.61;48.35
33554;BME280;19885;42.208;24.952;2024-03-25T10:41:08;98757.75;;;14.63;48.79
33554;BME280;19885;42.208;24.952;2024-03-25T10:43:34;98763.03;;;14.61;47.83
33554;BME280;19885;42.208;24.952;2024-03-25T10:46:00;98765.13;;;14.81;52.10
33554;BME280;19885;42.208;24.952;2024-03-25T10:50:51;98757.03;;;14.56;51.32
33554;BME280;19885;42.208;24.952;2024-03-25T10:53:18;98768.94;;;14.69;48.52
33554;BME280;19885;42.208;24.952;2024-03-25T10:55:46;98768.78;;;15.05;46.66
33554;BME280;19885;42.208;24.952;2024-03-25T10:58:13;98762.63;;;15.35;49.87
33554;BME280;19885;42.208;24.952;2024-03-25T11:00:40;98766.34;;;15.57;47.80
33554;BME280;19885;42.208;24.952;2024-03-25T11:03:07;98760.63;;;15.44;44.71
33554;BME280;19885;42.208;24.952;2024-03-25T11:05:34;98756.59;;;15.31;42.05
33554;BME280;19885;42.208;24.952;2024-03-25T11:08:09;98761.66;;;15.10;43.36
33554;BME280;19885;42.208;24.952;2024-03-25T11:10:39;98763.59;;;15.03;46.41
33554;BME280;19885;42.208;24.952;2024-03-25T11:13:04;98757.47;;;15.32;41.63
33554;BME280;19885;42.208;24.952;2024-03-25T11:15:41;98768.72;;;15.06;43.12
33554;BME280;19885;42.208;24.952;2024-03-25T11:18:16;98775.38;;;14.24;43.29
33554;BME280;19885;42.208;24.952;2024-03-25T11:20:42;98761.09;;;14.68;43.12
33554;BME280;19885;42.208;24.952;2024-03-25T11:23:08;98753.03;;;15.05;43.57
33554;BME280;19885;42.208;24.952;2024-03-25T11:25:33;98760.66;;;14.52;41.92
33554;BME280;19885;42.208;24.952;2024-03-25T11:28:02;98768.72;;;15.06;44.08
33554;BME280;19885;42.208;24.952;2024-03-25T11:30:27;98761.66;;;15.10;43.92
33554;BME280;19885;42.208;24.952;2024-03-25T11:32:54;98768.47;;;15.15;41.19
33554;BME280;19885;42.208;24.952;2024-03-25T11:35:19;98778.69;;;15.24;41.38
33554;BME280;19885;42.208;24.952;2024-03-25T11:37:45;98774.81;;;15.37;42.95
33554;BME280;19885;42.208;24.952;2024-03-25T11:40:16;98766.69;;;15.17;41.07
33554;BME280;19885;42.208;24.952;2024-03-25T11:42:42;98767.22;;;15.28;40.66
33554;BME280;19885;42.208;24.952;2024-03-25T11:45:20;98755.50;;;15.38;40.19
33554;BME280;19885;42.208;24.952;2024-03-25T11:47:46;98759.44;;;15.25;39.65
33554;BME280;19885;42.208;24.952;2024-03-25T11:50:13;98763.41;;;15.38;40.34
33554;BME280;19885;42.208;24.952;2024-03-25T11:52:38;98768.50;;;15.43;37.03
33554;BME280;19885;42.208;24.952;2024-03-25T11:55:04;98771.19;;;15.41;38.22
33554;BME280;19885;42.208;24.952;2024-03-25T11:57:29;98772.19;;;15.66;37.75
33554;BME280;19885;42.208;24.952;2024-03-25T11:59:55;98778.09;;;15.73;38.53
33554;BME280;19885;42.208;24.952;2024-03-25T12:02:22;98772.09;;;15.69;38.67
33554;BME280;19885;42.208;24.952;2024-03-25T12:04:48;98784.31;;;15.70;40.37
33554;BME280;19885;42.208;24.952;2024-03-25T12:07:14;98783.50;;;15.95;41.06
33554;BME280;19885;42.208;24.952;2024-03-25T12:09:39;98776.84;;;15.85;38.94
33554;BME280;19885;42.208;24.952;2024-03-25T12:12:24;98788.91;;;15.90;41.14
33554;BME280;19885;42.208;24.952;2024-03-25T12:14:52;98784.38;;;15.67;39.42
33554;BME280;19885;42.208;24.952;2024-03-25T12:17:18;98780.50;;;15.81;39.08
33554;BME280;19885;42.208;24.952;2024-03-25T12:19:57;98783.69;;;15.62;41.96
33554;BME280;19885;42.208;24.952;2024-03-25T12:22:24;98782.16;;;15.55;40.13
33554;BME280;19885;42.208;24.952;2024-03-25T12:24:49;98790.31;;;15.46;42.93
33554;BME280;19885;42.208;24.952;2024-03-25T12:27:14;98794.16;;;15.35;46.45
33554;BME280;19885;42.208;24.952;2024-03-25T12:29:40;98788.75;;;15.39;46.38
33554;BME280;19885;42.208;24.952;2024-03-25T12:32:05;98801.22;;;15.62;44.62
33554;BME280;19885;42.208;24.952;2024-03-25T12:34:34;98794.38;;;15.56;44.41
33554;BME280;19885;42.208;24.952;2024-03-25T12:37:03;98799.69;;;15.55;43.38
33554;BME280;19885;42.208;24.952;2024-03-25T12:39:29;98792.69;;;15.83;45.67
33554;BME280;19885;42.208;24.952;2024-03-25T12:41:55;98809.19;;;15.87;44.51
33554;BME280;19885;42.208;24.952;2024-03-25T12:44:21;98816.34;;;15.82;41.73